createdAt,value
2019-04-14T04:01:02.164Z,0.00
2019-04-14T04:02:03.154Z,0.00
2019-04-14T04:03:54.702Z,0.00
2019-04-14T04:04:55.492Z,0.00
2019-04-14T04:06:48.455Z,0.00
2019-04-14T04:07:47.458Z,0.00
2019-04-14T04:09:41.045Z,0.00
2019-04-14T04:10:40.039Z,0.00
2019-04-14T04:12:33.497Z,0.00
2019-04-14T04:13:32.354Z,0.00
2019-04-14T04:15:25.630Z,0.00
2019-04-14T04:16:24.773Z,0.00
2019-04-14T04:18:17.754Z,0.00
2019-04-14T04:19:18.564Z,0.00
2019-04-14T04:21:09.976Z,0.00
2019-04-14T04:22:10.627Z,0.00
2019-04-14T04:24:02.544Z,0.00
2019-04-14T04:25:02.990Z,0.00
2019-04-14T04:26:56.075Z,5.63
2019-04-14T04:27:54.952Z,5.63
2019-04-14T04:29:48.431Z,5.63
2019-04-14T04:30:47.495Z,5.63
2019-04-14T04:32:40.465Z,5.63
2019-04-14T04:33:40.049Z,11.25
2019-04-14T04:35:32.721Z,11.25
2019-04-14T04:36:33.475Z,11.25
2019-04-14T04:38:25.257Z,16.88
2019-04-14T04:39:25.759Z,16.88
2019-04-14T04:41:18.902Z,16.88
2019-04-14T04:42:17.735Z,22.50
2019-04-14T04:44:11.480Z,22.50
2019-04-14T04:45:10.405Z,28.13
2019-04-14T04:47:03.486Z,28.13
2019-04-14T04:48:02.781Z,33.75
2019-04-14T04:49:55.485Z,33.75
2019-04-14T04:50:56.265Z,39.38
2019-04-14T04:52:48.151Z,45.00
2019-04-14T04:53:48.344Z,50.63
2019-04-14T04:55:41.588Z,50.63
2019-04-14T04:56:40.560Z,56.25
2019-04-14T04:58:33.072Z,61.88
2019-04-14T04:59:34.224Z,67.50
2019-04-14T05:01:25.636Z,73.13
2019-04-14T05:02:26.573Z,78.75
2019-04-14T05:04:18.165Z,78.75
2019-04-14T05:05:18.791Z,84.38
2019-04-14T05:07:10.719Z,90.00
2019-04-14T05:08:10.882Z,95.63
2019-04-14T05:10:04.585Z,101.25
2019-04-14T05:11:03.314Z,106.88
2019-04-14T05:12:56.482Z,112.50
2019-04-14T05:13:55.685Z,118.13
2019-04-14T05:15:48.925Z,123.75
2019-04-14T05:16:48.556Z,123.75
2019-04-14T05:18:41.909Z,135.00
2019-04-14T05:19:41.991Z,140.63
2019-04-14T05:21:34.311Z,146.25
2019-04-14T05:22:33.374Z,151.88
2019-04-14T05:24:26.861Z,157.50
2019-04-14T05:25:25.876Z,163.13
2019-04-14T05:27:18.896Z,168.75
2019-04-14T05:28:18.412Z,174.38
2019-04-14T05:30:11.232Z,180.00
2019-04-14T05:31:12.060Z,185.63
2019-04-14T05:33:03.653Z,191.25
2019-04-14T05:34:04.394Z,196.88
2019-04-14T05:35:57.329Z,202.50
2019-04-14T05:36:56.397Z,208.13
2019-04-14T05:38:49.592Z,213.75
2019-04-14T05:39:48.598Z,219.38
2019-04-14T05:41:55.006Z,230.63
2019-04-14T05:42:41.169Z,230.63
2019-04-14T05:44:34.087Z,241.88
2019-04-14T05:45:33.702Z,241.88
2019-04-14T05:47:28.320Z,247.50
2019-04-14T05:48:27.316Z,253.13
2019-04-14T05:50:20.313Z,258.75
2019-04-14T05:51:21.678Z,264.38
2019-04-14T05:53:13.185Z,275.63
2019-04-14T05:54:12.338Z,275.63
2019-04-14T05:56:05.768Z,281.25
2019-04-14T05:57:04.905Z,286.88
2019-04-14T05:58:58.014Z,292.50
2019-04-14T05:59:57.431Z,298.13
2019-04-14T06:01:51.079Z,303.75
2019-04-14T06:02:50.685Z,309.38
2019-04-14T06:04:43.880Z,315.00
2019-04-14T06:05:42.854Z,320.63
2019-04-14T06:07:35.239Z,326.25
2019-04-14T06:08:35.105Z,331.88
2019-04-14T06:10:27.780Z,337.50
2019-04-14T06:11:27.653Z,343.13
2019-04-14T06:13:20.332Z,348.75
2019-04-14T06:14:20.197Z,354.38
2019-04-14T06:16:12.857Z,360.00
2019-04-14T06:17:12.746Z,365.63
2019-04-14T06:19:05.426Z,371.25
2019-04-14T06:20:05.288Z,371.25
2019-04-14T06:21:57.950Z,382.50
2019-04-14T06:22:57.841Z,388.13
2019-04-14T06:24:50.541Z,393.75
2019-04-14T06:25:50.384Z,399.38
2019-04-14T06:27:43.048Z,405.00
2019-04-14T06:28:42.934Z,405.00
2019-04-14T06:30:35.615Z,416.25
2019-04-14T06:31:35.476Z,421.88
2019-04-14T06:33:28.165Z,427.50
2019-04-14T06:34:28.025Z,438.75
2019-04-14T06:36:20.708Z,438.75
2019-04-14T06:37:20.577Z,444.38
2019-04-14T06:39:13.241Z,450.00
2019-04-14T06:40:13.123Z,455.63
2019-04-14T06:42:05.801Z,466.88
2019-04-14T06:43:05.669Z,472.50
2019-04-14T06:44:58.334Z,478.13
2019-04-14T06:45:58.220Z,478.13
2019-04-14T06:47:50.901Z,500.63
2019-04-14T06:48:50.765Z,495.00
2019-04-14T06:50:46.160Z,506.25
2019-04-14T06:51:43.318Z,517.50
2019-04-14T06:53:36.001Z,528.75
2019-04-14T06:54:35.878Z,551.25
2019-04-14T06:56:28.599Z,652.50
2019-04-14T06:57:28.448Z,832.50
2019-04-14T06:59:21.118Z,1063.13
2019-04-14T07:00:20.993Z,1085.63
2019-04-14T07:02:13.658Z,1125.00
2019-04-14T07:03:13.552Z,1108.13
2019-04-14T07:05:06.233Z,1141.88
2019-04-14T07:06:06.087Z,1153.13
2019-04-14T07:07:58.764Z,1158.75
2019-04-14T07:08:58.654Z,1164.38
2019-04-14T07:10:51.348Z,1192.50
2019-04-14T07:11:51.218Z,1203.75
2019-04-14T07:13:48.013Z,1226.25
2019-04-14T07:14:43.785Z,1231.88
2019-04-14T07:16:36.479Z,1248.75
2019-04-14T07:17:36.344Z,1243.13
2019-04-14T07:19:29.016Z,1271.25
2019-04-14T07:20:28.914Z,1276.88
2019-04-14T07:22:21.591Z,1293.75
2019-04-14T07:23:21.478Z,1305.00
2019-04-14T07:25:14.156Z,1316.25
2019-04-14T07:26:14.058Z,1338.75
2019-04-14T07:28:06.745Z,1321.88
2019-04-14T07:29:06.631Z,1220.63
2019-04-14T07:30:59.300Z,1321.88
2019-04-14T07:31:59.190Z,1378.13
2019-04-14T07:33:51.890Z,1406.25
2019-04-14T07:34:51.781Z,1451.25
2019-04-14T07:36:44.460Z,1456.88
2019-04-14T07:37:44.331Z,1462.50
2019-04-14T07:39:37.032Z,1473.75
2019-04-14T07:40:36.902Z,1496.25
2019-04-14T07:42:29.585Z,1530.00
2019-04-14T07:43:29.481Z,1591.88
2019-04-14T07:45:22.180Z,1580.63
2019-04-14T07:46:22.055Z,1586.25
2019-04-14T07:48:14.798Z,1591.88
2019-04-14T07:49:14.630Z,1608.75
2019-04-14T07:51:07.330Z,1591.88
2019-04-14T07:52:07.202Z,1614.38
2019-04-14T07:53:59.881Z,1625.63
2019-04-14T07:54:59.767Z,1620.00
2019-04-14T07:56:52.460Z,1575.00
2019-04-14T07:57:52.339Z,1636.88
2019-04-14T07:59:45.025Z,1648.13
2019-04-14T08:00:44.910Z,1642.50
2019-04-14T08:02:37.613Z,1648.13
2019-04-14T08:03:37.490Z,1636.88
2019-04-14T08:05:30.175Z,1603.13
2019-04-14T08:06:30.057Z,1563.75
2019-04-14T08:08:22.762Z,1462.50
2019-04-14T08:09:22.636Z,1378.13
2019-04-14T08:11:15.351Z,1102.50
2019-04-14T08:12:15.197Z,950.63
2019-04-14T08:14:07.884Z,838.13
2019-04-14T08:15:07.769Z,798.75
2019-04-14T08:17:00.441Z,748.13
2019-04-14T08:18:00.338Z,736.88
2019-04-14T08:19:53.052Z,703.13
2019-04-14T08:20:52.936Z,686.25
2019-04-14T08:22:45.600Z,669.38
2019-04-14T08:23:45.489Z,663.75
2019-04-14T08:25:38.185Z,652.50
2019-04-14T08:26:38.056Z,646.88
2019-04-14T08:28:30.733Z,635.63
2019-04-14T08:29:30.626Z,635.63
2019-04-14T08:31:23.344Z,635.63
2019-04-14T08:32:23.492Z,635.63
2019-04-14T08:34:15.871Z,635.63
2019-04-14T08:35:15.793Z,635.63
2019-04-14T08:37:08.445Z,635.63
2019-04-14T08:38:08.367Z,635.63
2019-04-14T08:40:00.989Z,635.63
2019-04-14T08:41:00.891Z,635.63
2019-04-14T08:42:53.617Z,630.00
2019-04-14T08:43:53.500Z,630.00
2019-04-14T08:45:46.160Z,630.00
2019-04-14T08:46:46.044Z,630.00
2019-04-14T08:48:38.727Z,630.00
2019-04-14T08:49:38.606Z,630.00
2019-04-14T08:51:31.299Z,624.38
2019-04-14T08:52:31.162Z,624.38
2019-04-14T08:54:23.868Z,624.38
2019-04-14T08:55:23.725Z,624.38
2019-04-14T08:57:16.436Z,624.38
2019-04-14T08:58:16.306Z,624.38
2019-04-14T09:00:08.977Z,618.75
2019-04-14T09:01:08.873Z,618.75
2019-04-14T09:03:01.577Z,618.75
2019-04-14T09:04:01.452Z,613.13
2019-04-14T09:05:54.117Z,613.13
2019-04-14T09:06:54.013Z,613.13
2019-04-14T09:08:46.696Z,630.00
2019-04-14T09:09:46.571Z,635.63
2019-04-14T09:11:39.238Z,607.50
2019-04-14T09:12:39.127Z,607.50
2019-04-14T09:14:31.829Z,613.13
2019-04-14T09:15:31.709Z,613.13
2019-04-14T09:17:24.361Z,601.88
2019-04-14T09:18:24.259Z,601.88
2019-04-14T09:20:16.945Z,601.88
2019-04-14T09:21:16.801Z,596.25
2019-04-14T09:23:09.518Z,596.25
2019-04-14T09:24:09.361Z,613.13
2019-04-14T09:26:02.046Z,590.63
2019-04-14T09:27:01.915Z,585.00
2019-04-14T09:28:54.586Z,585.00
2019-04-14T09:29:54.481Z,585.00
2019-04-14T09:31:47.667Z,579.38
2019-04-14T09:32:47.524Z,579.38
2019-04-14T09:34:40.187Z,573.75
2019-04-14T09:35:40.090Z,573.75
2019-04-14T09:37:32.791Z,585.00
2019-04-14T09:38:32.698Z,573.75
2019-04-14T09:40:25.355Z,562.50
2019-04-14T09:41:25.217Z,562.50
2019-04-14T09:43:17.901Z,562.50
2019-04-14T09:44:17.764Z,568.13
2019-04-14T09:46:10.489Z,596.25
2019-04-14T09:47:10.389Z,562.50
2019-04-14T09:49:03.055Z,562.50
2019-04-14T09:50:02.927Z,568.13
2019-04-14T09:51:55.594Z,556.88
2019-04-14T09:52:55.484Z,556.88
2019-04-14T09:54:48.173Z,551.25
2019-04-14T09:55:48.047Z,551.25
2019-04-14T09:57:40.713Z,562.50
2019-04-14T09:58:40.614Z,573.75
2019-04-14T10:00:33.278Z,556.88
2019-04-14T10:01:33.150Z,551.25
2019-04-14T10:03:25.828Z,556.88
2019-04-14T10:04:25.718Z,545.63
2019-04-14T10:06:18.988Z,540.00
2019-04-14T10:07:18.860Z,540.00
2019-04-14T10:09:11.524Z,540.00
2019-04-14T10:10:11.418Z,540.00
2019-04-14T10:12:04.105Z,534.38
2019-04-14T10:13:03.974Z,540.00
2019-04-14T10:14:56.651Z,540.00
2019-04-14T10:15:56.534Z,545.63
2019-04-14T10:17:49.223Z,556.88
2019-04-14T10:18:49.105Z,562.50
2019-04-14T10:20:41.770Z,540.00
2019-04-14T10:21:41.662Z,551.25
2019-04-14T10:23:34.348Z,551.25
2019-04-14T10:24:34.241Z,540.00
2019-04-14T10:26:26.900Z,495.00
2019-04-14T10:27:26.789Z,523.13
2019-04-14T10:29:19.475Z,506.25
2019-04-14T10:30:19.350Z,478.13
2019-04-14T10:32:12.019Z,562.50
2019-04-14T10:33:11.909Z,596.25
2019-04-14T10:35:04.597Z,573.75
2019-04-14T10:36:04.471Z,585.00
2019-04-14T10:37:57.161Z,652.50
2019-04-14T10:38:57.045Z,686.25
2019-04-14T10:40:49.702Z,669.38
2019-04-14T10:41:49.591Z,658.13
2019-04-14T10:43:42.283Z,500.63
2019-04-14T10:44:42.159Z,511.88
2019-04-14T10:46:34.835Z,590.63
2019-04-14T10:47:34.722Z,545.63
2019-04-14T10:49:27.416Z,562.50
2019-04-14T10:50:31.118Z,585.00
2019-04-14T10:52:19.958Z,703.13
2019-04-14T10:53:19.846Z,832.50
2019-04-14T10:55:12.554Z,832.50
2019-04-14T10:56:12.423Z,832.50
2019-04-14T10:58:05.095Z,691.88
2019-04-14T10:59:04.981Z,641.25
2019-04-14T11:00:57.671Z,652.50
2019-04-14T11:01:57.550Z,652.50
2019-04-14T11:03:50.216Z,810.00
2019-04-14T11:04:50.114Z,815.63
2019-04-14T11:06:42.797Z,765.00
2019-04-14T11:07:42.668Z,753.75
2019-04-14T11:09:35.358Z,624.38
2019-04-14T11:10:35.240Z,585.00
2019-04-14T11:12:27.936Z,675.00
2019-04-14T11:13:27.847Z,663.75
2019-04-14T11:15:20.476Z,601.88
2019-04-14T11:16:20.371Z,652.50
2019-04-14T11:18:13.059Z,624.38
2019-04-14T11:19:12.933Z,641.25
2019-04-14T11:21:06.133Z,658.13
2019-04-14T11:22:05.998Z,697.50
2019-04-14T11:23:58.696Z,753.75
2019-04-14T11:24:58.581Z,725.63
2019-04-14T11:26:51.275Z,697.50
2019-04-14T11:27:51.146Z,658.13
2019-04-14T11:29:43.808Z,607.50
2019-04-14T11:30:43.702Z,596.25
2019-04-14T11:32:36.399Z,652.50
2019-04-14T11:33:36.259Z,720.00
2019-04-14T11:35:28.938Z,770.63
2019-04-14T11:36:28.831Z,697.50
2019-04-14T11:38:21.541Z,596.25
2019-04-14T11:39:21.413Z,551.25
2019-04-14T11:41:14.127Z,556.88
2019-04-14T11:42:13.970Z,534.38
2019-04-14T11:44:06.693Z,579.38
2019-04-14T11:45:06.529Z,590.63
2019-04-14T11:46:59.572Z,590.63
2019-04-14T11:47:59.138Z,601.88
2019-04-14T11:49:51.824Z,624.38
2019-04-14T11:50:51.709Z,630.00
2019-04-14T11:52:44.381Z,540.00
2019-04-14T11:53:44.253Z,528.75
2019-04-14T11:55:36.939Z,663.75
2019-04-14T11:56:36.833Z,601.88
2019-04-14T11:58:29.546Z,573.75
2019-04-14T11:59:29.395Z,585.00
2019-04-14T12:01:22.064Z,697.50
2019-04-14T12:02:21.947Z,748.13
2019-04-14T12:04:14.667Z,697.50
2019-04-14T12:05:14.531Z,680.63
2019-04-14T12:07:07.204Z,562.50
2019-04-14T12:08:07.092Z,545.63
2019-04-14T12:10:00.294Z,495.00
2019-04-14T12:11:00.156Z,511.88
2019-04-14T12:12:52.895Z,517.50
2019-04-14T12:13:52.730Z,545.63
2019-04-14T12:15:45.392Z,652.50
2019-04-14T12:16:45.291Z,618.75
2019-04-14T12:18:37.985Z,596.25
2019-04-14T12:19:37.863Z,556.88
2019-04-14T12:21:30.529Z,534.38
2019-04-14T12:22:30.423Z,511.88
2019-04-14T12:24:23.113Z,551.25
2019-04-14T12:25:22.985Z,624.38
2019-04-14T12:27:15.659Z,669.38
2019-04-14T12:28:15.560Z,663.75
2019-04-14T12:30:08.722Z,613.13
2019-04-14T12:31:08.717Z,624.38
2019-04-14T12:33:00.862Z,635.63
2019-04-14T12:34:00.684Z,652.50
2019-04-14T12:35:53.384Z,669.38
2019-04-14T12:36:53.253Z,675.00
2019-04-14T12:38:45.921Z,720.00
2019-04-14T12:39:45.820Z,731.25
2019-04-14T12:41:38.516Z,607.50
2019-04-14T12:42:38.398Z,607.50
2019-04-14T12:44:31.074Z,669.38
2019-04-14T12:45:30.965Z,697.50
2019-04-14T12:47:23.652Z,675.00
2019-04-14T12:48:23.529Z,753.75
2019-04-14T12:50:16.205Z,736.88
2019-04-14T12:51:16.095Z,703.13
2019-04-14T12:53:08.794Z,630.00
2019-04-14T12:54:08.672Z,590.63
2019-04-14T12:56:01.357Z,590.63
2019-04-14T12:57:01.269Z,596.25
2019-04-14T12:58:53.930Z,618.75
2019-04-14T12:59:53.813Z,658.13
2019-04-14T13:01:46.533Z,776.25
2019-04-14T13:02:46.397Z,736.88
2019-04-14T13:04:39.075Z,652.50
2019-04-14T13:05:38.951Z,675.00
2019-04-14T13:07:31.649Z,669.38
2019-04-14T13:08:31.522Z,675.00
2019-04-14T13:10:24.202Z,562.50
2019-04-14T13:11:24.089Z,568.13
2019-04-14T13:13:16.790Z,534.38
2019-04-14T13:14:16.659Z,551.25
2019-04-14T13:16:09.358Z,596.25
2019-04-14T13:17:09.234Z,590.63
2019-04-14T13:19:01.923Z,540.00
2019-04-14T13:20:01.802Z,556.88
2019-04-14T13:21:54.483Z,601.88
2019-04-14T13:22:54.371Z,607.50
2019-04-14T13:24:47.062Z,652.50
2019-04-14T13:25:46.943Z,658.13
2019-04-14T13:27:39.611Z,697.50
2019-04-14T13:28:39.511Z,725.63
2019-04-14T13:30:32.198Z,787.50
2019-04-14T13:31:32.074Z,736.88
2019-04-14T13:33:24.762Z,551.25
2019-04-14T13:34:24.643Z,472.50
2019-04-14T13:36:17.335Z,455.63
2019-04-14T13:37:17.215Z,393.75
2019-04-14T13:39:12.610Z,247.50
2019-04-14T13:40:09.779Z,225.00
2019-04-14T13:42:02.479Z,270.00
2019-04-14T13:43:02.355Z,320.63
2019-04-14T13:44:55.032Z,433.13
2019-04-14T13:45:54.923Z,489.38
2019-04-14T13:47:47.688Z,540.00
2019-04-14T13:48:47.563Z,568.13
2019-04-14T13:50:40.259Z,601.88
2019-04-14T13:51:40.142Z,624.38
2019-04-14T13:53:32.829Z,641.25
2019-04-14T13:54:32.709Z,646.88
2019-04-14T13:56:25.387Z,607.50
2019-04-14T13:57:25.274Z,579.38
2019-04-14T13:59:17.971Z,506.25
2019-04-14T14:00:17.851Z,472.50
2019-04-14T14:02:10.520Z,444.38
2019-04-14T14:03:10.415Z,466.88
2019-04-14T14:05:03.104Z,500.63
2019-04-14T14:06:02.977Z,506.25
2019-04-14T14:07:55.678Z,568.13
2019-04-14T14:08:55.606Z,601.88
2019-04-14T14:10:48.251Z,641.25
2019-04-14T14:11:48.122Z,641.25
2019-04-14T14:13:40.833Z,641.25
2019-04-14T14:14:40.685Z,641.25
2019-04-14T14:16:33.354Z,601.88
2019-04-14T14:17:33.247Z,585.00
2019-04-14T14:19:25.954Z,590.63
2019-04-14T14:20:25.807Z,590.63
2019-04-14T14:22:18.489Z,607.50
2019-04-14T14:23:18.372Z,596.25
2019-04-14T14:25:11.069Z,585.00
2019-04-14T14:26:10.949Z,551.25
2019-04-14T14:28:03.653Z,500.63
2019-04-14T14:29:03.514Z,500.63
2019-04-14T14:30:56.197Z,433.13
2019-04-14T14:31:56.077Z,455.63
2019-04-14T14:33:48.744Z,461.25
2019-04-14T14:34:48.637Z,410.63
2019-04-14T14:36:41.334Z,264.38
2019-04-14T14:37:41.207Z,247.50
2019-04-14T14:39:33.878Z,258.75
2019-04-14T14:40:33.794Z,258.75
2019-04-14T14:42:26.500Z,286.88
2019-04-14T14:43:26.374Z,309.38
2019-04-14T14:45:19.057Z,343.13
2019-04-14T14:46:18.965Z,365.63
2019-04-14T14:48:11.641Z,421.88
2019-04-14T14:49:11.519Z,421.88
2019-04-14T14:51:04.207Z,483.75
2019-04-14T14:52:04.079Z,489.38
2019-04-14T14:53:56.757Z,489.38
2019-04-14T14:54:56.640Z,466.88
2019-04-14T14:56:49.332Z,393.75
2019-04-14T14:57:49.200Z,354.38
2019-04-14T14:59:41.864Z,270.00
2019-04-14T15:00:41.764Z,247.50
2019-04-14T15:02:34.454Z,253.13
2019-04-14T15:03:34.325Z,275.63
2019-04-14T15:05:27.013Z,320.63
2019-04-14T15:06:26.901Z,337.50
2019-04-14T15:08:19.602Z,354.38
2019-04-14T15:09:19.469Z,337.50
2019-04-14T15:11:12.185Z,320.63
2019-04-14T15:12:12.035Z,320.63
2019-04-14T15:14:04.706Z,298.13
2019-04-14T15:15:04.604Z,281.25
2019-04-14T15:16:57.303Z,292.50
2019-04-14T15:17:57.166Z,303.75
2019-04-14T15:19:49.867Z,354.38
2019-04-14T15:20:49.733Z,360.00
2019-04-14T15:22:42.434Z,360.00
2019-04-14T15:23:42.298Z,365.63
2019-04-14T15:25:34.973Z,343.13
2019-04-14T15:26:34.860Z,343.13
2019-04-14T15:28:27.584Z,298.13
2019-04-14T15:29:27.414Z,275.63
2019-04-14T15:31:20.091Z,241.88
2019-04-14T15:32:19.988Z,253.13
2019-04-14T15:34:12.672Z,247.50
2019-04-14T15:35:12.544Z,253.13
2019-04-14T15:37:05.213Z,258.75
2019-04-14T15:38:05.102Z,275.63
2019-04-14T15:39:57.819Z,247.50
2019-04-14T15:40:57.661Z,236.25
2019-04-14T15:42:50.325Z,208.13
2019-04-14T15:43:50.221Z,196.88
2019-04-14T15:45:42.914Z,180.00
2019-04-14T15:46:42.777Z,180.00
2019-04-14T15:48:35.457Z,180.00
2019-04-14T15:49:35.412Z,185.63
2019-04-14T15:51:28.042Z,202.50
2019-04-14T15:52:27.913Z,202.50
2019-04-14T15:54:20.586Z,202.50
2019-04-14T15:55:20.471Z,202.50
2019-04-14T15:57:13.171Z,208.13
2019-04-14T15:58:13.036Z,208.13
2019-04-14T16:00:05.698Z,202.50
2019-04-14T16:01:05.588Z,202.50
2019-04-14T16:02:58.271Z,191.25
2019-04-14T16:03:58.145Z,168.75
2019-04-14T16:05:50.809Z,140.63
2019-04-14T16:06:50.703Z,129.38
2019-04-14T16:08:43.389Z,112.50
2019-04-14T16:09:43.265Z,95.63
2019-04-14T16:11:36.577Z,90.00
2019-04-14T16:12:35.822Z,90.00
2019-04-14T16:14:28.507Z,90.00
2019-04-14T16:15:28.383Z,90.00
2019-04-14T16:17:21.043Z,90.00
2019-04-14T16:18:20.943Z,90.00
2019-04-14T16:20:13.617Z,95.63
2019-04-14T16:21:13.507Z,106.88
2019-04-14T16:23:06.158Z,106.88
2019-04-14T16:24:06.050Z,112.50
2019-04-14T16:25:58.733Z,129.38
2019-04-14T16:26:58.606Z,129.38
2019-04-14T16:28:51.289Z,140.63
2019-04-14T16:29:51.152Z,146.25
2019-04-14T16:31:43.837Z,146.25
2019-04-14T16:32:43.722Z,146.25
2019-04-14T16:34:36.417Z,151.88
2019-04-14T16:35:36.284Z,157.50
2019-04-14T16:37:28.951Z,168.75
2019-04-14T16:38:28.838Z,168.75
2019-04-14T16:40:21.520Z,180.00
2019-04-14T16:41:21.401Z,180.00
2019-04-14T16:43:14.062Z,174.38
2019-04-14T16:44:13.957Z,174.38
2019-04-14T16:46:06.638Z,163.13
2019-04-14T16:47:06.517Z,163.13
2019-04-14T16:48:59.177Z,168.75
2019-04-14T16:49:59.071Z,174.38
2019-04-14T16:51:51.761Z,185.63
2019-04-14T16:52:51.633Z,174.38
2019-04-14T16:54:44.301Z,163.13
2019-04-14T16:55:44.189Z,151.88
2019-04-14T16:57:36.885Z,157.50
2019-04-14T16:58:36.790Z,163.13
2019-04-14T17:00:29.470Z,185.63
2019-04-14T17:01:29.311Z,180.00
2019-04-14T17:03:22.001Z,174.38
2019-04-14T17:04:21.861Z,174.38
2019-04-14T17:06:14.532Z,180.00
2019-04-14T17:07:14.470Z,180.00
2019-04-14T17:09:07.106Z,168.75
2019-04-14T17:10:06.982Z,168.75
2019-04-14T17:11:59.658Z,151.88
2019-04-14T17:12:59.541Z,151.88
2019-04-14T17:14:52.225Z,151.88
2019-04-14T17:15:52.096Z,151.88
2019-04-14T17:17:44.897Z,146.25
2019-04-14T17:18:44.652Z,140.63
2019-04-14T17:20:37.343Z,146.25
2019-04-14T17:21:37.252Z,140.63
2019-04-14T17:23:29.895Z,146.25
2019-04-14T17:24:29.773Z,140.63
2019-04-14T17:26:22.461Z,135.00
2019-04-14T17:27:22.330Z,129.38
2019-04-14T17:29:14.992Z,123.75
2019-04-14T17:30:14.883Z,118.13
2019-04-14T17:32:07.558Z,112.50
2019-04-14T17:33:07.428Z,106.88
2019-04-14T17:35:00.102Z,106.88
2019-04-14T17:35:59.983Z,112.50
2019-04-14T17:37:52.740Z,118.13
2019-04-14T17:38:52.547Z,118.13
2019-04-14T17:40:45.235Z,106.88
2019-04-14T17:41:45.118Z,101.25
2019-04-14T17:43:37.819Z,90.00
2019-04-14T17:44:37.673Z,90.00
2019-04-14T17:46:30.336Z,90.00
2019-04-14T17:47:30.232Z,90.00
2019-04-14T17:49:22.916Z,78.75
2019-04-14T17:50:22.782Z,67.50
2019-04-14T17:52:15.470Z,61.88
2019-04-14T17:53:15.361Z,56.25
2019-04-14T17:55:08.047Z,50.63
2019-04-14T17:56:07.918Z,45.00
2019-04-14T17:58:00.583Z,39.38
2019-04-14T17:59:00.469Z,39.38
2019-04-14T18:00:53.166Z,33.75
2019-04-14T18:01:53.043Z,33.75
2019-04-14T18:03:45.697Z,28.13
2019-04-14T18:04:45.584Z,22.50
2019-04-14T18:06:38.281Z,16.88
2019-04-14T18:07:38.141Z,16.88
2019-04-14T18:09:30.822Z,16.88
2019-04-14T18:10:30.701Z,16.88
2019-04-14T18:12:23.401Z,11.25
2019-04-14T18:13:23.259Z,11.25
2019-04-14T18:15:15.945Z,11.25
2019-04-14T18:16:15.816Z,11.25
2019-04-14T18:18:08.522Z,11.25
2019-04-14T18:19:08.399Z,11.25
2019-04-14T18:21:01.073Z,5.63
2019-04-14T18:22:00.949Z,5.63
2019-04-14T18:23:53.797Z,5.63
2019-04-14T18:24:53.668Z,5.63
2019-04-14T18:26:46.331Z,5.63
2019-04-14T18:27:46.220Z,0.00
2019-04-14T18:29:38.904Z,0.00
2019-04-14T18:30:38.781Z,0.00
2019-04-14T18:32:31.604Z,0.00
2019-04-14T18:33:31.344Z,0.00
2019-04-14T18:35:24.018Z,0.00
2019-04-14T18:36:23.893Z,0.00
2019-04-14T18:38:16.547Z,0.00
2019-04-14T18:39:16.436Z,0.00
2019-04-14T18:41:09.126Z,0.00
2019-04-14T18:42:09.006Z,0.00
2019-04-14T18:44:01.652Z,0.00
2019-04-14T18:45:01.545Z,0.00
2019-04-14T18:46:54.223Z,0.00
2019-04-14T18:47:54.098Z,0.00
2019-04-14T18:49:46.764Z,0.00
2019-04-14T18:50:46.649Z,0.00
2019-04-14T18:52:39.819Z,0.00
2019-04-14T18:53:39.693Z,0.00
2019-04-14T18:55:32.357Z,0.00
2019-04-14T18:56:32.246Z,0.00
2019-04-14T18:58:24.924Z,0.00
2019-04-14T18:59:24.797Z,0.00
2019-04-14T19:01:17.467Z,0.00
2019-04-14T19:02:17.351Z,0.00
2019-04-14T19:04:10.034Z,0.00
2019-04-14T19:05:09.904Z,0.00
2019-04-14T19:07:02.603Z,0.00
2019-04-14T19:08:02.460Z,0.00
2019-04-14T19:09:55.145Z,0.00
2019-04-14T19:10:55.021Z,0.00
2019-04-14T19:12:47.695Z,0.00
2019-04-14T19:13:47.570Z,0.00
2019-04-14T19:15:40.266Z,0.00
2019-04-14T19:16:40.325Z,0.00
2019-04-14T19:18:32.788Z,0.00
2019-04-14T19:19:32.672Z,0.00
2019-04-14T19:21:25.358Z,0.00
2019-04-14T19:22:25.234Z,0.00
2019-04-14T19:24:17.908Z,0.00
2019-04-14T19:25:17.786Z,0.00
2019-04-14T19:27:10.467Z,0.00
2019-04-14T19:28:10.340Z,0.00
2019-04-14T19:30:03.499Z,0.00
2019-04-14T19:31:03.383Z,0.00
2019-04-14T19:32:56.072Z,0.00
2019-04-14T19:33:56.703Z,0.00
2019-04-14T19:35:48.593Z,0.00
2019-04-14T19:36:48.482Z,0.00
2019-04-14T19:38:41.189Z,0.00
2019-04-14T19:39:41.056Z,0.00
2019-04-14T19:41:33.716Z,0.00
2019-04-14T19:42:33.605Z,0.00
2019-04-14T19:44:26.285Z,0.00
2019-04-14T19:45:26.166Z,0.00
2019-04-14T19:47:18.827Z,0.00
2019-04-14T19:48:18.707Z,0.00
2019-04-14T19:50:11.387Z,0.00
2019-04-14T19:51:11.270Z,0.00
2019-04-14T19:53:03.933Z,0.00
2019-04-14T19:54:03.841Z,0.00
2019-04-14T19:55:56.520Z,0.00
2019-04-14T19:56:56.387Z,0.00
2019-04-14T19:58:49.051Z,0.00
2019-04-14T19:59:49.139Z,0.00
2019-04-14T20:01:42.116Z,0.00
2019-04-14T20:02:41.988Z,0.00
2019-04-14T20:04:34.663Z,0.00
2019-04-14T20:05:34.584Z,0.00
2019-04-14T20:07:27.224Z,0.00
2019-04-14T20:08:27.096Z,0.00
2019-04-14T20:10:20.252Z,0.00
2019-04-14T20:11:20.139Z,0.00
2019-04-14T20:13:12.821Z,0.00
2019-04-14T20:14:12.686Z,0.00
2019-04-14T20:16:05.364Z,0.00
2019-04-14T20:17:06.122Z,0.00
2019-04-14T20:19:09.804Z,0.00
2019-04-14T20:19:57.805Z,0.00
2019-04-14T20:21:50.465Z,0.00
2019-04-14T20:22:50.349Z,0.00
2019-04-14T20:24:43.045Z,0.00
2019-04-14T20:25:42.925Z,0.00
2019-04-14T20:27:35.591Z,0.00
2019-04-14T20:28:35.490Z,0.00
2019-04-14T20:30:28.181Z,0.00
2019-04-14T20:31:28.034Z,0.00
2019-04-14T20:33:20.732Z,0.00
2019-04-14T20:34:20.585Z,0.00
2019-04-14T20:36:13.257Z,0.00
2019-04-14T20:37:13.139Z,0.00
2019-04-14T20:39:05.820Z,0.00
2019-04-14T20:40:05.680Z,0.00
2019-04-14T20:41:58.345Z,0.00
2019-04-14T20:42:58.229Z,0.00
2019-04-14T20:44:51.412Z,0.00
2019-04-14T20:45:51.284Z,0.00
2019-04-14T20:47:43.969Z,0.00
2019-04-14T20:48:43.838Z,0.00
2019-04-14T20:50:36.523Z,0.00
2019-04-14T20:51:36.395Z,0.00
2019-04-14T20:53:29.056Z,0.00
2019-04-14T20:54:28.938Z,0.00
2019-04-14T20:56:21.624Z,0.00
2019-04-14T20:57:21.501Z,0.00
2019-04-14T20:59:14.162Z,0.00
2019-04-14T21:00:14.060Z,0.00
2019-04-14T21:02:06.752Z,0.00
2019-04-14T21:03:06.605Z,0.00
2019-04-14T21:04:59.270Z,0.00
2019-04-14T21:05:59.155Z,0.00
2019-04-14T21:07:51.839Z,0.00
2019-04-14T21:08:51.706Z,0.00
2019-04-14T21:10:44.428Z,0.00
2019-04-14T21:11:44.255Z,0.00
2019-04-14T21:13:36.940Z,0.00
2019-04-14T21:14:36.805Z,0.00
2019-04-14T21:16:29.475Z,0.00
2019-04-14T21:17:29.362Z,0.00
2019-04-14T21:19:22.057Z,0.00
2019-04-14T21:20:21.920Z,0.00
2019-04-14T21:22:14.590Z,0.00
2019-04-14T21:23:14.468Z,0.00
2019-04-14T21:25:07.162Z,0.00
2019-04-14T21:26:07.018Z,0.00
2019-04-14T21:27:59.692Z,0.00
2019-04-14T21:28:59.591Z,0.00
2019-04-14T21:30:52.261Z,0.00
2019-04-14T21:31:52.136Z,0.00
2019-04-14T21:33:44.803Z,0.00
2019-04-14T21:34:44.700Z,0.00
2019-04-14T21:36:37.376Z,0.00
2019-04-14T21:37:37.279Z,0.00
2019-04-14T21:39:29.918Z,0.00
2019-04-14T21:40:29.801Z,0.00
2019-04-14T21:42:22.480Z,0.00
2019-04-14T21:43:22.349Z,0.00
2019-04-14T21:45:15.018Z,0.00
2019-04-14T21:46:14.900Z,0.00
2019-04-14T21:48:07.583Z,0.00
2019-04-14T21:49:07.458Z,0.00
2019-04-14T21:51:00.123Z,0.00
2019-04-14T21:52:00.008Z,0.00
2019-04-14T21:53:52.698Z,0.00
2019-04-14T21:54:52.582Z,0.00
2019-04-14T21:56:46.281Z,0.00
2019-04-14T21:57:46.164Z,0.00
2019-04-14T21:59:38.843Z,0.00
